sensor_id;sensor_type;location;lat;lon;timestamp;temperature;humidity
666;DHT22;315;48.738;9.126;2022-08-19T00:01:37;21.40;99.90
666;DHT22;315;48.738;9.126;2022-08-19T00:04:05;21.40;99.90
666;DHT22;315;48.738;9.126;2022-08-19T00:06:31;21.50;99.90
666;DHT22;315;48.738;9.126;2022-08-19T00:08:57;21.50;99.90
666;DHT22;315;48.738;9.126;2022-08-19T00:11:26;21.50;99.90
666;DHT22;315;48.738;9.126;2022-08-19T00:13:53;21.50;99.90
666;DHT22;315;48.738;9.126;2022-08-19T00:16:19;21.50;99.90
666;DHT22;315;48.738;9.126;2022-08-19T00:18:46;21.60;99.90
666;DHT22;315;48.738;9.126;2022-08-19T00:21:12;21.60;99.90
666;DHT22;315;48.738;9.126;2022-08-19T00:23:37;21.60;99.90
666;DHT22;315;48.738;9.126;2022-08-19T00:26:04;21.50;99.90
666;DHT22;315;48.738;9.126;2022-08-19T00:28:30;21.50;99.90
666;DHT22;315;48.738;9.126;2022-08-19T00:30:56;21.50;99.90
666;DHT22;315;48.738;9.126;2022-08-19T00:33:21;21.50;99.90
666;DHT22;315;48.738;9.126;2022-08-19T00:35:47;21.50;99.90
666;DHT22;315;48.738;9.126;2022-08-19T00:38:12;21.40;99.90
666;DHT22;315;48.738;9.126;2022-08-19T00:40:38;21.30;99.90
666;DHT22;315;48.738;9.126;2022-08-19T00:43:09;21.30;99.90
666;DHT22;315;48.738;9.126;2022-08-19T00:45:35;21.40;99.90
666;DHT22;315;48.738;9.126;2022-08-19T00:48:01;21.50;99.90
666;DHT22;315;48.738;9.126;2022-08-19T00:50:29;21.40;99.90
666;DHT22;315;48.738;9.126;2022-08-19T00:52:56;21.50;99.90
666;DHT22;315;48.738;9.126;2022-08-19T00:55:25;21.40;99.90
666;DHT22;315;48.738;9.126;2022-08-19T00:57:56;21.30;99.90
666;DHT22;315;48.738;9.126;2022-08-19T01:00:24;21.20;99.90
666;DHT22;315;48.738;9.126;2022-08-19T01:02:50;21.30;99.90
666;DHT22;315;48.738;9.126;2022-08-19T01:05:18;21.30;99.90
666;DHT22;315;48.738;9.126;2022-08-19T01:07:46;21.20;99.90
666;DHT22;315;48.738;9.126;2022-08-19T01:10:15;21.30;99.90
666;DHT22;315;48.738;9.126;2022-08-19T01:12:44;21.50;99.90
666;DHT22;315;48.738;9.126;2022-08-19T01:15:12;21.30;99.90
666;DHT22;315;48.738;9.126;2022-08-19T01:17:40;21.30;99.90
666;DHT22;315;48.738;9.126;2022-08-19T01:20:07;21.30;99.90
666;DHT22;315;48.738;9.126;2022-08-19T01:23:06;21.30;99.90
666;DHT22;315;48.738;9.126;2022-08-19T01:25:47;21.30;99.90
666;DHT22;315;48.738;9.126;2022-08-19T01:28:17;21.30;99.90
666;DHT22;315;48.738;9.126;2022-08-19T01:30:44;21.50;99.90
666;DHT22;315;48.738;9.126;2022-08-19T01:33:10;21.20;99.90
666;DHT22;315;48.738;9.126;2022-08-19T01:35:36;21.10;99.90
666;DHT22;315;48.738;9.126;2022-08-19T01:38:07;21.20;99.90
666;DHT22;315;48.738;9.126;2022-08-19T01:40:35;21.20;99.90
666;DHT22;315;48.738;9.126;2022-08-19T01:43:03;21.10;99.90
666;DHT22;315;48.738;9.126;2022-08-19T01:45:30;21.00;99.90
666;DHT22;315;48.738;9.126;2022-08-19T01:47:57;21.10;99.90
666;DHT22;315;48.738;9.126;2022-08-19T01:50:23;21.10;99.90
666;DHT22;315;48.738;9.126;2022-08-19T01:52:49;21.10;99.90
666;DHT22;315;48.738;9.126;2022-08-19T01:55:17;21.10;99.90
666;DHT22;315;48.738;9.126;2022-08-19T01:57:48;21.00;99.90
666;DHT22;315;48.738;9.126;2022-08-19T02:00:17;21.00;99.90
666;DHT22;315;48.738;9.126;2022-08-19T02:02:43;21.00;99.90
666;DHT22;315;48.738;9.126;2022-08-19T02:05:10;21.00;99.90
666;DHT22;315;48.738;9.126;2022-08-19T02:07:36;21.00;99.90
666;DHT22;315;48.738;9.126;2022-08-19T02:10:08;21.10;99.90
666;DHT22;315;48.738;9.126;2022-08-19T02:12:34;21.00;99.90
666;DHT22;315;48.738;9.126;2022-08-19T02:15:01;20.90;99.90
666;DHT22;315;48.738;9.126;2022-08-19T02:17:28;21.00;99.90
666;DHT22;315;48.738;9.126;2022-08-19T02:19:55;20.90;99.90
666;DHT22;315;48.738;9.126;2022-08-19T02:22:22;20.90;99.90
666;DHT22;315;48.738;9.126;2022-08-19T02:24:48;20.80;99.90
666;DHT22;315;48.738;9.126;2022-08-19T02:27:14;20.70;99.90
666;DHT22;315;48.738;9.126;2022-08-19T02:29:40;20.70;99.90
666;DHT22;315;48.738;9.126;2022-08-19T02:32:06;20.80;99.90
666;DHT22;315;48.738;9.126;2022-08-19T02:34:32;20.80;99.90
666;DHT22;315;48.738;9.126;2022-08-19T02:36:57;20.90;99.90
666;DHT22;315;48.738;9.126;2022-08-19T02:39:23;20.90;99.90
666;DHT22;315;48.738;9.126;2022-08-19T02:41:48;20.80;99.90
666;DHT22;315;48.738;9.126;2022-08-19T02:44:15;20.80;99.90
666;DHT22;315;48.738;9.126;2022-08-19T02:46:40;20.80;99.90
666;DHT22;315;48.738;9.126;2022-08-19T02:49:07;20.70;99.90
666;DHT22;315;48.738;9.126;2022-08-19T02:51:36;20.70;99.90
666;DHT22;315;48.738;9.126;2022-08-19T02:54:03;20.70;99.90
666;DHT22;315;48.738;9.126;2022-08-19T02:56:29;20.70;99.90
666;DHT22;315;48.738;9.126;2022-08-19T02:58:56;20.80;99.90
666;DHT22;315;48.738;9.126;2022-08-19T03:01:28;20.70;99.90
666;DHT22;315;48.738;9.126;2022-08-19T03:03:55;20.80;99.90
666;DHT22;315;48.738;9.126;2022-08-19T03:06:21;20.70;99.90
666;DHT22;315;48.738;9.126;2022-08-19T03:08:48;20.80;99.90
666;DHT22;315;48.738;9.126;2022-08-19T03:11:21;20.80;99.90
666;DHT22;315;48.738;9.126;2022-08-19T03:13:47;21.40;99.90
666;DHT22;315;48.738;9.126;2022-08-19T03:16:14;20.80;99.90
666;DHT22;315;48.738;9.126;2022-08-19T03:18:41;20.70;99.90
666;DHT22;315;48.738;9.126;2022-08-19T03:21:07;20.70;99.90
666;DHT22;315;48.738;9.126;2022-08-19T03:23:32;20.70;99.90
666;DHT22;315;48.738;9.126;2022-08-19T03:25:59;20.60;99.90
666;DHT22;315;48.738;9.126;2022-08-19T03:28:29;20.50;99.90
666;DHT22;315;48.738;9.126;2022-08-19T03:31:02;20.70;99.90
666;DHT22;315;48.738;9.126;2022-08-19T03:33:29;20.60;99.90
666;DHT22;315;48.738;9.126;2022-08-19T03:38:43;20.40;99.90
666;DHT22;315;48.738;9.126;2022-08-19T03:41:13;20.40;99.90
666;DHT22;315;48.738;9.126;2022-08-19T03:43:40;20.40;99.90
666;DHT22;315;48.738;9.126;2022-08-19T03:46:09;20.60;99.90
666;DHT22;315;48.738;9.126;2022-08-19T03:48:35;20.50;99.90
666;DHT22;315;48.738;9.126;2022-08-19T03:51:02;20.40;99.90
666;DHT22;315;48.738;9.126;2022-08-19T03:53:28;20.50;99.90
666;DHT22;315;48.738;9.126;2022-08-19T03:55:55;20.50;99.90
666;DHT22;315;48.738;9.126;2022-08-19T03:58:22;20.40;99.90
666;DHT22;315;48.738;9.126;2022-08-19T04:00:48;20.40;99.90
666;DHT22;315;48.738;9.126;2022-08-19T04:03:14;20.30;99.90
666;DHT22;315;48.738;9.126;2022-08-19T04:05:40;20.30;99.90
666;DHT22;315;48.738;9.126;2022-08-19T04:08:05;20.20;99.90
666;DHT22;315;48.738;9.126;2022-08-19T04:10:38;20.20;99.90
666;DHT22;315;48.738;9.126;2022-08-19T04:13:04;20.20;99.90
666;DHT22;315;48.738;9.126;2022-08-19T04:15:31;20.20;99.90
666;DHT22;315;48.738;9.126;2022-08-19T04:18:04;20.30;99.90
666;DHT22;315;48.738;9.126;2022-08-19T04:20:31;20.30;99.90
666;DHT22;315;48.738;9.126;2022-08-19T04:22:56;20.30;99.90
666;DHT22;315;48.738;9.126;2022-08-19T04:25:22;20.40;99.90
666;DHT22;315;48.738;9.126;2022-08-19T04:27:47;20.30;99.90
666;DHT22;315;48.738;9.126;2022-08-19T04:30:14;20.30;99.90
666;DHT22;315;48.738;9.126;2022-08-19T04:32:40;20.20;99.90
666;DHT22;315;48.738;9.126;2022-08-19T04:35:05;20.20;99.90
666;DHT22;315;48.738;9.126;2022-08-19T04:37:31;20.20;99.90
666;DHT22;315;48.738;9.126;2022-08-19T04:39:59;20.20;99.90
666;DHT22;315;48.738;9.126;2022-08-19T04:42:43;20.10;99.90
666;DHT22;315;48.738;9.126;2022-08-19T04:45:12;20.10;99.90
666;DHT22;315;48.738;9.126;2022-08-19T04:47:39;20.00;99.90
666;DHT22;315;48.738;9.126;2022-08-19T04:50:06;20.10;99.90
666;DHT22;315;48.738;9.126;2022-08-19T04:52:32;20.10;99.90
666;DHT22;315;48.738;9.126;2022-08-19T04:54:57;20.20;99.90
666;DHT22;315;48.738;9.126;2022-08-19T04:57:23;20.20;99.90
666;DHT22;315;48.738;9.126;2022-08-19T04:59:54;20.30;99.90
666;DHT22;315;48.738;9.126;2022-08-19T05:02:20;20.40;99.90
666;DHT22;315;48.738;9.126;2022-08-19T05:04:45;20.30;99.90
666;DHT22;315;48.738;9.126;2022-08-19T05:07:11;20.30;99.90
666;DHT22;315;48.738;9.126;2022-08-19T05:09:36;20.40;99.90
666;DHT22;315;48.738;9.126;2022-08-19T05:12:02;20.30;99.90
666;DHT22;315;48.738;9.126;2022-08-19T05:14:28;20.40;99.90
666;DHT22;315;48.738;9.126;2022-08-19T05:16:54;20.30;99.90
666;DHT22;315;48.738;9.126;2022-08-19T05:19:19;20.40;99.90
666;DHT22;315;48.738;9.126;2022-08-19T05:22:04;20.40;99.90
666;DHT22;315;48.738;9.126;2022-08-19T05:24:48;20.30;99.90
666;DHT22;315;48.738;9.126;2022-08-19T05:27:14;20.40;99.90
666;DHT22;315;48.738;9.126;2022-08-19T05:29:39;20.40;99.90
666;DHT22;315;48.738;9.126;2022-08-19T05:32:05;20.40;99.90
666;DHT22;315;48.738;9.126;2022-08-19T05:34:34;20.40;99.90
666;DHT22;315;48.738;9.126;2022-08-19T05:37:02;20.40;99.90
666;DHT22;315;48.738;9.126;2022-08-19T05:39:30;20.50;99.90
666;DHT22;315;48.738;9.126;2022-08-19T05:42:01;20.50;99.90
666;DHT22;315;48.738;9.126;2022-08-19T05:44:30;20.40;99.90
666;DHT22;315;48.738;9.126;2022-08-19T05:46:57;20.50;99.90
666;DHT22;315;48.738;9.126;2022-08-19T05:49:23;20.50;99.90
666;DHT22;315;48.738;9.126;2022-08-19T05:51:50;20.60;99.90
666;DHT22;315;48.738;9.126;2022-08-19T05:54:15;20.60;99.90
666;DHT22;315;48.738;9.126;2022-08-19T05:56:42;20.50;99.90
666;DHT22;315;48.738;9.126;2022-08-19T05:59:09;20.50;99.90
666;DHT22;315;48.738;9.126;2022-08-19T06:01:40;20.60;99.90
666;DHT22;315;48.738;9.126;2022-08-19T06:04:07;20.50;99.90
666;DHT22;315;48.738;9.126;2022-08-19T06:06:33;20.50;99.90
666;DHT22;315;48.738;9.126;2022-08-19T06:09:00;20.50;99.90
666;DHT22;315;48.738;9.126;2022-08-19T06:11:36;20.50;99.90
666;DHT22;315;48.738;9.126;2022-08-19T06:14:08;20.50;99.90
666;DHT22;315;48.738;9.126;2022-08-19T06:16:40;20.50;99.90
666;DHT22;315;48.738;9.126;2022-08-19T06:19:09;20.40;99.90
666;DHT22;315;48.738;9.126;2022-08-19T06:21:37;20.40;99.90
666;DHT22;315;48.738;9.126;2022-08-19T06:24:08;20.40;99.90
666;DHT22;315;48.738;9.126;2022-08-19T06:26:36;20.40;99.90
666;DHT22;315;48.738;9.126;2022-08-19T06:29:03;20.40;99.90
666;DHT22;315;48.738;9.126;2022-08-19T06:31:31;20.50;99.90
666;DHT22;315;48.738;9.126;2022-08-19T06:33:59;20.60;99.90
666;DHT22;315;48.738;9.126;2022-08-19T06:36:28;20.60;99.90
666;DHT22;315;48.738;9.126;2022-08-19T06:38:58;20.60;99.90
666;DHT22;315;48.738;9.126;2022-08-19T06:41:25;20.50;99.90
666;DHT22;315;48.738;9.126;2022-08-19T06:43:51;20.60;99.90
666;DHT22;315;48.738;9.126;2022-08-19T06:46:17;20.60;99.90
666;DHT22;315;48.738;9.126;2022-08-19T06:48:47;20.80;99.90
666;DHT22;315;48.738;9.126;2022-08-19T06:51:17;20.70;99.90
666;DHT22;315;48.738;9.126;2022-08-19T06:53:47;20.70;99.90
666;DHT22;315;48.738;9.126;2022-08-19T06:56:15;20.80;99.90
666;DHT22;315;48.738;9.126;2022-08-19T06:58:41;20.70;99.90
666;DHT22;315;48.738;9.126;2022-08-19T07:01:07;20.50;99.90
666;DHT22;315;48.738;9.126;2022-08-19T07:03:35;20.60;99.90
666;DHT22;315;48.738;9.126;2022-08-19T07:06:10;20.60;99.90
666;DHT22;315;48.738;9.126;2022-08-19T07:08:36;20.60;99.90
666;DHT22;315;48.738;9.126;2022-08-19T07:11:07;20.60;99.90
666;DHT22;315;48.738;9.126;2022-08-19T07:13:34;20.50;99.90
666;DHT22;315;48.738;9.126;2022-08-19T07:16:06;20.40;99.90
666;DHT22;315;48.738;9.126;2022-08-19T07:18:32;20.40;99.90
666;DHT22;315;48.738;9.126;2022-08-19T07:23:33;20.40;99.90
666;DHT22;315;48.738;9.126;2022-08-19T07:26:05;20.40;99.90
666;DHT22;315;48.738;9.126;2022-08-19T07:28:31;20.40;99.90
666;DHT22;315;48.738;9.126;2022-08-19T07:30:56;20.30;99.90
666;DHT22;315;48.738;9.126;2022-08-19T07:33:22;20.40;99.90
666;DHT22;315;48.738;9.126;2022-08-19T07:35:48;20.30;99.90
666;DHT22;315;48.738;9.126;2022-08-19T07:38:15;20.30;99.90
666;DHT22;315;48.738;9.126;2022-08-19T07:40:41;20.20;99.90
666;DHT22;315;48.738;9.126;2022-08-19T07:43:08;20.20;99.90
666;DHT22;315;48.738;9.126;2022-08-19T07:45:33;20.20;99.90
666;DHT22;315;48.738;9.126;2022-08-19T07:47:59;20.20;99.90
666;DHT22;315;48.738;9.126;2022-08-19T07:50:26;20.10;99.90
666;DHT22;315;48.738;9.126;2022-08-19T07:52:51;20.10;99.90
666;DHT22;315;48.738;9.126;2022-08-19T07:55:23;20.20;99.90
666;DHT22;315;48.738;9.126;2022-08-19T07:57:49;20.20;99.90
666;DHT22;315;48.738;9.126;2022-08-19T08:00:15;20.30;99.90
666;DHT22;315;48.738;9.126;2022-08-19T08:02:40;20.40;99.90
666;DHT22;315;48.738;9.126;2022-08-19T08:05:08;20.30;99.90
666;DHT22;315;48.738;9.126;2022-08-19T08:07:53;20.30;99.90
666;DHT22;315;48.738;9.126;2022-08-19T08:10:36;20.30;99.90
666;DHT22;315;48.738;9.126;2022-08-19T08:13:03;20.30;99.90
666;DHT22;315;48.738;9.126;2022-08-19T08:15:30;20.30;99.90
666;DHT22;315;48.738;9.126;2022-08-19T08:17:56;20.30;99.90
666;DHT22;315;48.738;9.126;2022-08-19T08:20:23;20.20;99.90
666;DHT22;315;48.738;9.126;2022-08-19T08:22:49;20.20;99.90
666;DHT22;315;48.738;9.126;2022-08-19T08:25:35;20.10;99.90
666;DHT22;315;48.738;9.126;2022-08-19T08:28:02;20.30;99.90
666;DHT22;315;48.738;9.126;2022-08-19T08:30:29;20.10;99.90
666;DHT22;315;48.738;9.126;2022-08-19T08:32:55;20.10;99.90
666;DHT22;315;48.738;9.126;2022-08-19T08:35:23;20.10;99.90
666;DHT22;315;48.738;9.126;2022-08-19T08:37:51;20.20;99.90
666;DHT22;315;48.738;9.126;2022-08-19T08:41:07;20.20;99.90
666;DHT22;315;48.738;9.126;2022-08-19T08:43:40;20.30;99.90
666;DHT22;315;48.738;9.126;2022-08-19T08:46:15;20.40;99.90
666;DHT22;315;48.738;9.126;2022-08-19T08:49:09;20.50;99.90
666;DHT22;315;48.738;9.126;2022-08-19T08:51:42;20.50;99.90
666;DHT22;315;48.738;9.126;2022-08-19T08:54:11;20.50;99.90
666;DHT22;315;48.738;9.126;2022-08-19T08:56:40;20.50;99.90
666;DHT22;315;48.738;9.126;2022-08-19T08:59:14;20.50;99.90
666;DHT22;315;48.738;9.126;2022-08-19T09:01:42;20.70;99.90
666;DHT22;315;48.738;9.126;2022-08-19T09:04:07;20.90;99.90
666;DHT22;315;48.738;9.126;2022-08-19T09:07:14;20.90;99.90
666;DHT22;315;48.738;9.126;2022-08-19T09:09:34;21.00;99.90
666;DHT22;315;48.738;9.126;2022-08-19T09:14:49;21.00;99.90
666;DHT22;315;48.738;9.126;2022-08-19T09:17:16;21.10;99.90
666;DHT22;315;48.738;9.126;2022-08-19T09:22:40;21.10;99.90
666;DHT22;315;48.738;9.126;2022-08-19T09:25:08;21.20;99.90
666;DHT22;315;48.738;9.126;2022-08-19T09:27:35;21.20;99.90
666;DHT22;315;48.738;9.126;2022-08-19T09:30:03;21.20;99.90
666;DHT22;315;48.738;9.126;2022-08-19T09:32:29;21.20;99.90
666;DHT22;315;48.738;9.126;2022-08-19T09:34:55;21.20;99.90
666;DHT22;315;48.738;9.126;2022-08-19T09:37:23;21.20;99.90
666;DHT22;315;48.738;9.126;2022-08-19T09:39:50;21.20;99.90
666;DHT22;315;48.738;9.126;2022-08-19T09:42:15;21.20;99.90
666;DHT22;315;48.738;9.126;2022-08-19T09:44:42;21.30;99.90
666;DHT22;315;48.738;9.126;2022-08-19T09:47:09;21.30;99.90
666;DHT22;315;48.738;9.126;2022-08-19T09:49:35;21.20;99.90
666;DHT22;315;48.738;9.126;2022-08-19T09:52:01;21.10;99.90
666;DHT22;315;48.738;9.126;2022-08-19T09:54:27;21.20;99.90
666;DHT22;315;48.738;9.126;2022-08-19T09:56:53;21.20;99.90
666;DHT22;315;48.738;9.126;2022-08-19T09:59:19;21.20;99.90
666;DHT22;315;48.738;9.126;2022-08-19T10:01:44;21.30;99.90
666;DHT22;315;48.738;9.126;2022-08-19T10:04:10;21.40;99.90
666;DHT22;315;48.738;9.126;2022-08-19T10:06:38;21.40;99.90
666;DHT22;315;48.738;9.126;2022-08-19T10:09:06;21.40;99.90
666;DHT22;315;48.738;9.126;2022-08-19T10:11:33;21.40;99.90
666;DHT22;315;48.738;9.126;2022-08-19T10:14:00;21.50;99.90
666;DHT22;315;48.738;9.126;2022-08-19T10:16:27;21.60;99.90
666;DHT22;315;48.738;9.126;2022-08-19T10:18:53;21.50;99.90
666;DHT22;315;48.738;9.126;2022-08-19T10:21:25;21.60;99.90
666;DHT22;315;48.738;9.126;2022-08-19T10:23:53;21.60;99.90
666;DHT22;315;48.738;9.126;2022-08-19T10:26:23;21.60;99.90
666;DHT22;315;48.738;9.126;2022-08-19T10:28:49;21.70;99.90
666;DHT22;315;48.738;9.126;2022-08-19T10:31:18;21.70;99.90
666;DHT22;315;48.738;9.126;2022-08-19T10:33:46;21.80;99.90
666;DHT22;315;48.738;9.126;2022-08-19T10:36:15;21.80;99.90
666;DHT22;315;48.738;9.126;2022-08-19T10:38:42;21.70;99.90
666;DHT22;315;48.738;9.126;2022-08-19T10:41:15;21.90;99.90
666;DHT22;315;48.738;9.126;2022-08-19T10:43:41;21.70;99.90
666;DHT22;315;48.738;9.126;2022-08-19T10:46:10;21.90;99.90
666;DHT22;315;48.738;9.126;2022-08-19T10:48:36;21.90;99.90
666;DHT22;315;48.738;9.126;2022-08-19T10:51:02;21.80;99.90
666;DHT22;315;48.738;9.126;2022-08-19T10:53:47;21.80;99.90
666;DHT22;315;48.738;9.126;2022-08-19T10:56:13;21.80;99.90
666;DHT22;315;48.738;9.126;2022-08-19T10:58:58;21.80;99.90
666;DHT22;315;48.738;9.126;2022-08-19T11:01:28;21.90;99.90
666;DHT22;315;48.738;9.126;2022-08-19T11:03:55;22.00;99.90
666;DHT22;315;48.738;9.126;2022-08-19T11:06:23;21.90;99.90
666;DHT22;315;48.738;9.126;2022-08-19T11:08:50;22.00;99.90
666;DHT22;315;48.738;9.126;2022-08-19T11:11:16;22.10;99.90
666;DHT22;315;48.738;9.126;2022-08-19T11:13:42;22.10;99.90
666;DHT22;315;48.738;9.126;2022-08-19T11:16:15;22.20;99.90
666;DHT22;315;48.738;9.126;2022-08-19T11:18:47;22.20;99.90
666;DHT22;315;48.738;9.126;2022-08-19T11:21:26;22.30;99.90
666;DHT22;315;48.738;9.126;2022-08-19T11:23:55;22.30;99.90
666;DHT22;315;48.738;9.126;2022-08-19T11:26:21;22.40;99.90
666;DHT22;315;48.738;9.126;2022-08-19T11:28:48;22.50;99.90
666;DHT22;315;48.738;9.126;2022-08-19T11:31:21;22.70;99.90
666;DHT22;315;48.738;9.126;2022-08-19T11:33:47;22.80;99.90
666;DHT22;315;48.738;9.126;2022-08-19T11:36:16;22.80;99.90
666;DHT22;315;48.738;9.126;2022-08-19T11:38:42;22.90;99.90
666;DHT22;315;48.738;9.126;2022-08-19T11:41:08;22.90;99.90
666;DHT22;315;48.738;9.126;2022-08-19T11:43:34;23.10;99.90
666;DHT22;315;48.738;9.126;2022-08-19T11:46:04;23.10;99.90
666;DHT22;315;48.738;9.126;2022-08-19T11:48:32;23.20;99.90
666;DHT22;315;48.738;9.126;2022-08-19T11:50:58;23.10;99.90
666;DHT22;315;48.738;9.126;2022-08-19T11:53:24;23.10;99.90
666;DHT22;315;48.738;9.126;2022-08-19T11:55:53;23.00;99.90
666;DHT22;315;48.738;9.126;2022-08-19T11:58:21;23.10;99.90
666;DHT22;315;48.738;9.126;2022-08-19T12:00:47;23.00;99.90
666;DHT22;315;48.738;9.126;2022-08-19T12:03:12;23.20;99.90
666;DHT22;315;48.738;9.126;2022-08-19T12:05:39;23.20;99.90
666;DHT22;315;48.738;9.126;2022-08-19T12:08:05;23.50;99.90
666;DHT22;315;48.738;9.126;2022-08-19T12:10:31;23.80;99.90
666;DHT22;315;48.738;9.126;2022-08-19T12:12:57;23.90;99.90
666;DHT22;315;48.738;9.126;2022-08-19T12:15:23;24.20;99.90
666;DHT22;315;48.738;9.126;2022-08-19T12:17:48;24.20;99.90
666;DHT22;315;48.738;9.126;2022-08-19T12:20:14;24.20;99.90
666;DHT22;315;48.738;9.126;2022-08-19T12:22:42;24.00;99.90
666;DHT22;315;48.738;9.126;2022-08-19T12:25:11;24.00;99.90
666;DHT22;315;48.738;9.126;2022-08-19T12:27:37;23.90;99.90
666;DHT22;315;48.738;9.126;2022-08-19T12:30:04;23.70;99.90
666;DHT22;315;48.738;9.126;2022-08-19T12:32:29;23.70;99.90
666;DHT22;315;48.738;9.126;2022-08-19T12:34:55;23.60;99.90
666;DHT22;315;48.738;9.126;2022-08-19T12:37:21;23.70;99.90
666;DHT22;315;48.738;9.126;2022-08-19T12:39:46;24.00;99.90
666;DHT22;315;48.738;9.126;2022-08-19T12:42:13;23.80;99.90
666;DHT22;315;48.738;9.126;2022-08-19T12:44:42;23.90;99.90
666;DHT22;315;48.738;9.126;2022-08-19T12:47:10;23.80;99.90
666;DHT22;315;48.738;9.126;2022-08-19T12:49:36;23.80;99.90
666;DHT22;315;48.738;9.126;2022-08-19T12:52:04;23.70;99.90
666;DHT22;315;48.738;9.126;2022-08-19T12:54:30;23.60;99.90
666;DHT22;315;48.738;9.126;2022-08-19T12:56:57;23.50;99.90
666;DHT22;315;48.738;9.126;2022-08-19T12:59:23;23.50;99.90
666;DHT22;315;48.738;9.126;2022-08-19T13:01:49;23.50;99.90
666;DHT22;315;48.738;9.126;2022-08-19T13:04:15;23.60;99.90
666;DHT22;315;48.738;9.126;2022-08-19T13:06:41;23.60;99.90
666;DHT22;315;48.738;9.126;2022-08-19T13:09:08;23.40;99.90
666;DHT22;315;48.738;9.126;2022-08-19T13:11:34;23.20;99.90
666;DHT22;315;48.738;9.126;2022-08-19T13:14:01;23.20;99.90
666;DHT22;315;48.738;9.126;2022-08-19T13:16:28;22.90;99.90
666;DHT22;315;48.738;9.126;2022-08-19T13:18:54;22.40;99.90
666;DHT22;315;48.738;9.126;2022-08-19T13:21:23;22.10;99.90
666;DHT22;315;48.738;9.126;2022-08-19T13:23:49;21.90;99.90
666;DHT22;315;48.738;9.126;2022-08-19T13:26:15;21.90;99.90
666;DHT22;315;48.738;9.126;2022-08-19T13:28:41;22.10;99.90
666;DHT22;315;48.738;9.126;2022-08-19T13:31:28;22.20;99.90
666;DHT22;315;48.738;9.126;2022-08-19T13:34:13;22.10;99.90
666;DHT22;315;48.738;9.126;2022-08-19T13:36:39;22.20;99.90
666;DHT22;315;48.738;9.126;2022-08-19T13:39:06;22.00;99.90
666;DHT22;315;48.738;9.126;2022-08-19T13:41:33;21.90;99.90
666;DHT22;315;48.738;9.126;2022-08-19T13:43:59;21.90;99.90
666;DHT22;315;48.738;9.126;2022-08-19T13:46:24;21.80;99.90
666;DHT22;315;48.738;9.126;2022-08-19T13:48:50;21.90;99.90
666;DHT22;315;48.738;9.126;2022-08-19T13:51:17;21.80;99.90
666;DHT22;315;48.738;9.126;2022-08-19T13:53:43;21.80;99.90
666;DHT22;315;48.738;9.126;2022-08-19T13:56:11;21.90;99.90
666;DHT22;315;48.738;9.126;2022-08-19T13:58:38;21.80;99.90
666;DHT22;315;48.738;9.126;2022-08-19T14:01:06;21.60;99.90
666;DHT22;315;48.738;9.126;2022-08-19T14:03:35;21.40;99.90
666;DHT22;315;48.738;9.126;2022-08-19T14:06:01;21.10;99.90
666;DHT22;315;48.738;9.126;2022-08-19T14:08:27;21.00;99.90
666;DHT22;315;48.738;9.126;2022-08-19T14:10:54;20.90;99.90
666;DHT22;315;48.738;9.126;2022-08-19T14:13:21;21.00;99.90
666;DHT22;315;48.738;9.126;2022-08-19T14:15:47;21.20;99.90
666;DHT22;315;48.738;9.126;2022-08-19T14:18:14;21.40;99.90
666;DHT22;315;48.738;9.126;2022-08-19T14:20:40;21.50;99.90
666;DHT22;315;48.738;9.126;2022-08-19T14:23:06;21.70;99.90
666;DHT22;315;48.738;9.126;2022-08-19T14:25:32;21.70;99.90
666;DHT22;315;48.738;9.126;2022-08-19T14:27:58;21.70;99.90
666;DHT22;315;48.738;9.126;2022-08-19T14:30:31;21.50;99.90
666;DHT22;315;48.738;9.126;2022-08-19T14:32:58;21.50;99.90
666;DHT22;315;48.738;9.126;2022-08-19T14:35:25;21.60;99.90
666;DHT22;315;48.738;9.126;2022-08-19T14:37:52;21.80;99.90
666;DHT22;315;48.738;9.126;2022-08-19T14:40:22;22.00;99.90
666;DHT22;315;48.738;9.126;2022-08-19T14:42:52;22.00;99.90
666;DHT22;315;48.738;9.126;2022-08-19T14:45:18;21.90;99.90
666;DHT22;315;48.738;9.126;2022-08-19T14:47:43;21.90;99.90
666;DHT22;315;48.738;9.126;2022-08-19T14:50:11;21.80;99.90
666;DHT22;315;48.738;9.126;2022-08-19T14:52:36;21.80;99.90
666;DHT22;315;48.738;9.126;2022-08-19T14:55:03;21.90;99.90
666;DHT22;315;48.738;9.126;2022-08-19T14:57:29;21.90;99.90
666;DHT22;315;48.738;9.126;2022-08-19T14:59:55;22.00;99.90
666;DHT22;315;48.738;9.126;2022-08-19T15:02:21;22.00;99.90
666;DHT22;315;48.738;9.126;2022-08-19T15:04:47;22.00;99.90
666;DHT22;315;48.738;9.126;2022-08-19T15:07:12;22.00;99.90
666;DHT22;315;48.738;9.126;2022-08-19T15:09:38;22.00;99.90
666;DHT22;315;48.738;9.126;2022-08-19T15:12:04;21.90;99.90
666;DHT22;315;48.738;9.126;2022-08-19T15:14:30;21.80;99.90
666;DHT22;315;48.738;9.126;2022-08-19T15:17:01;21.90;99.90
666;DHT22;315;48.738;9.126;2022-08-19T15:19:28;21.90;99.90
666;DHT22;315;48.738;9.126;2022-08-19T15:21:54;22.10;99.90
666;DHT22;315;48.738;9.126;2022-08-19T15:24:20;22.30;99.90
666;DHT22;315;48.738;9.126;2022-08-19T15:26:46;22.40;99.90
666;DHT22;315;48.738;9.126;2022-08-19T15:29:11;22.40;99.90
666;DHT22;315;48.738;9.126;2022-08-19T15:31:41;22.30;99.90
666;DHT22;315;48.738;9.126;2022-08-19T15:34:07;22.40;99.90
666;DHT22;315;48.738;9.126;2022-08-19T15:36:34;22.50;99.90
666;DHT22;315;48.738;9.126;2022-08-19T15:39:00;22.80;99.90
666;DHT22;315;48.738;9.126;2022-08-19T15:41:28;22.80;99.90
666;DHT22;315;48.738;9.126;2022-08-19T15:44:09;22.90;99.90
666;DHT22;315;48.738;9.126;2022-08-19T15:46:37;23.10;99.90
666;DHT22;315;48.738;9.126;2022-08-19T15:49:04;23.10;99.90
666;DHT22;315;48.738;9.126;2022-08-19T15:51:32;23.00;99.90
666;DHT22;315;48.738;9.126;2022-08-19T15:54:01;22.80;99.90
666;DHT22;315;48.738;9.126;2022-08-19T15:56:26;22.70;99.90
666;DHT22;315;48.738;9.126;2022-08-19T15:59:12;22.50;99.90
666;DHT22;315;48.738;9.126;2022-08-19T16:01:56;22.40;99.90
666;DHT22;315;48.738;9.126;2022-08-19T16:04:40;22.20;99.90
666;DHT22;315;48.738;9.126;2022-08-19T16:07:24;22.20;99.90
666;DHT22;315;48.738;9.126;2022-08-19T16:09:50;22.40;99.90
666;DHT22;315;48.738;9.126;2022-08-19T16:12:15;22.50;99.90
666;DHT22;315;48.738;9.126;2022-08-19T16:14:41;22.60;99.90
666;DHT22;315;48.738;9.126;2022-08-19T16:17:06;22.70;99.90
666;DHT22;315;48.738;9.126;2022-08-19T16:19:35;22.90;99.90
666;DHT22;315;48.738;9.126;2022-08-19T16:22:02;23.00;99.90
666;DHT22;315;48.738;9.126;2022-08-19T16:24:28;23.10;99.90
666;DHT22;315;48.738;9.126;2022-08-19T16:26:54;23.20;99.90
666;DHT22;315;48.738;9.126;2022-08-19T16:29:21;23.30;99.90
666;DHT22;315;48.738;9.126;2022-08-19T16:31:49;23.30;99.90
666;DHT22;315;48.738;9.126;2022-08-19T16:34:15;23.30;99.90
666;DHT22;315;48.738;9.126;2022-08-19T16:36:41;23.30;99.90
666;DHT22;315;48.738;9.126;2022-08-19T16:39:11;23.10;99.90
666;DHT22;315;48.738;9.126;2022-08-19T16:41:38;22.90;99.90
666;DHT22;315;48.738;9.126;2022-08-19T16:44:05;22.70;99.90
666;DHT22;315;48.738;9.126;2022-08-19T16:46:31;22.70;99.90
666;DHT22;315;48.738;9.126;2022-08-19T16:48:57;22.70;99.90
666;DHT22;315;48.738;9.126;2022-08-19T16:51:23;22.60;99.90